createdAt,value
2022-10-04T00:04:09.215Z,2.20
2022-10-04T00:09:23.314Z,2.58
2022-10-04T00:14:32.855Z,2.13
2022-10-04T00:19:47.671Z,2.10
2022-10-04T00:25:14.481Z,2.65
2022-10-04T00:30:23.369Z,2.10
2022-10-04T00:35:24.976Z,1.88
2022-10-04T00:40:31.871Z,2.08
2022-10-04T00:45:38.520Z,2.00
2022-10-04T00:50:44.745Z,2.00
2022-10-04T00:55:52.843Z,2.65
2022-10-04T01:00:56.991Z,2.40
2022-10-04T01:06:05.438Z,2.38
2022-10-04T01:11:23.566Z,2.15
2022-10-04T01:16:27.641Z,2.60
2022-10-04T01:21:31.607Z,2.20
2022-10-04T01:26:42.189Z,1.83
2022-10-04T01:31:52.056Z,2.00
2022-10-04T01:36:56.777Z,2.50
2022-10-04T01:42:08.469Z,2.13
2022-10-04T01:47:21.336Z,2.80
2022-10-04T01:52:37.666Z,2.70
2022-10-04T01:57:47.720Z,2.63
2022-10-04T02:03:04.023Z,2.50
2022-10-04T02:08:10.250Z,2.53
2022-10-04T02:13:18.001Z,2.13
2022-10-04T02:18:21.496Z,2.72
2022-10-04T02:23:24.983Z,2.38
2022-10-04T02:28:27.214Z,2.53
2022-10-04T02:33:29.045Z,2.50
2022-10-04T02:38:35.624Z,2.42
2022-10-04T02:44:09.269Z,2.80
2022-10-04T02:49:23.950Z,2.55
2022-10-04T02:54:52.581Z,2.35
2022-10-04T03:00:09.581Z,2.60
2022-10-04T03:05:14.504Z,1.92
2022-10-04T03:10:17.129Z,3.60
2022-10-04T03:15:19.811Z,2.28
2022-10-04T03:20:21.582Z,2.45
2022-10-04T03:25:30.641Z,2.47
2022-10-04T03:30:34.114Z,2.40
2022-10-04T03:35:38.804Z,2.80
2022-10-04T03:40:45.918Z,2.60
2022-10-04T03:45:47.910Z,2.28
2022-10-04T03:50:50.364Z,2.40
2022-10-04T03:55:52.880Z,2.60
2022-10-04T04:01:26.715Z,2.72
2022-10-04T04:06:47.121Z,2.42
2022-10-04T04:11:50.826Z,2.10
2022-10-04T04:16:54.918Z,2.42
2022-10-04T04:21:56.617Z,2.40
2022-10-04T04:27:03.010Z,2.28
2022-10-04T04:32:11.893Z,2.30
2022-10-04T04:37:13.592Z,2.28
2022-10-04T04:42:18.859Z,2.65
2022-10-04T04:47:35.637Z,2.17
2022-10-04T04:52:37.809Z,2.47
2022-10-04T04:57:39.893Z,2.35
2022-10-04T05:02:54.952Z,2.10
2022-10-04T05:08:09.198Z,2.40
2022-10-04T05:13:12.421Z,2.47
2022-10-04T05:18:31.568Z,2.45
2022-10-04T05:23:34.742Z,2.47
2022-10-04T05:28:36.493Z,2.25
2022-10-04T05:33:47.714Z,2.33
2022-10-04T05:39:02.742Z,2.45
2022-10-04T05:44:20.289Z,2.25
2022-10-04T05:49:25.071Z,2.28
2022-10-04T05:54:34.188Z,2.85
2022-10-04T06:00:04.876Z,3.15
2022-10-04T06:05:54.752Z,2.13
2022-10-04T06:11:18.469Z,2.75
2022-10-04T06:16:54.597Z,2.40
2022-10-04T06:22:08.408Z,2.90
2022-10-04T06:27:15.884Z,2.45
2022-10-04T06:37:44.843Z,2.70
2022-10-04T06:43:24.148Z,2.40
2022-10-04T06:49:03.375Z,3.08
2022-10-04T06:54:23.754Z,2.42
2022-10-04T06:59:40.397Z,3.08
2022-10-04T07:05:16.576Z,2.78
2022-10-04T07:10:27.959Z,2.75
2022-10-04T07:15:34.449Z,2.42
2022-10-04T07:20:37.309Z,2.60
2022-10-04T07:25:54.134Z,2.97
2022-10-04T07:31:23.116Z,3.00
2022-10-04T07:36:48.970Z,2.95
2022-10-04T07:41:54.947Z,2.88
2022-10-04T07:47:26.142Z,3.35
2022-10-04T07:53:03.906Z,3.25
2022-10-04T07:58:50.561Z,3.10
2022-10-04T08:04:19.496Z,2.78
2022-10-04T08:09:27.277Z,3.22
2022-10-04T08:14:36.081Z,2.65
2022-10-04T08:19:55.812Z,3.00
2022-10-04T08:25:08.809Z,3.05
2022-10-04T08:30:17.071Z,3.13
2022-10-04T08:35:29.688Z,3.47
2022-10-04T08:40:49.944Z,3.42
2022-10-04T08:46:10.827Z,3.83
2022-10-04T08:51:34.645Z,3.45
2022-10-04T08:57:15.607Z,3.60
2022-10-04T09:02:34.369Z,3.30
2022-10-04T09:08:05.641Z,3.28
2022-10-04T09:13:41.822Z,3.13
2022-10-04T09:18:51.221Z,3.90
2022-10-04T09:24:09.252Z,3.92
2022-10-04T09:29:25.360Z,3.35
2022-10-04T09:35:06.338Z,3.20
2022-10-04T09:40:09.564Z,2.80
2022-10-04T09:45:27.361Z,3.15
2022-10-04T09:50:39.780Z,3.08
2022-10-04T09:55:51.660Z,3.05
2022-10-04T10:01:35.515Z,2.78
2022-10-04T10:06:46.579Z,2.97
2022-10-04T10:12:45.848Z,3.55
2022-10-04T10:17:53.381Z,2.60
2022-10-04T10:23:45.228Z,2.92
2022-10-04T10:29:17.208Z,3.30
2022-10-04T10:34:43.635Z,2.70
2022-10-04T10:40:19.999Z,2.10
2022-10-04T10:45:40.875Z,2.05
2022-10-04T10:51:03.237Z,1.67
2022-10-04T10:56:32.120Z,1.80
2022-10-04T11:01:53.900Z,1.40
2022-10-04T11:07:33.176Z,1.50
2022-10-04T11:13:00.149Z,1.90
2022-10-04T11:18:26.315Z,1.63
2022-10-04T11:24:03.919Z,1.40
2022-10-04T11:29:31.912Z,1.45
2022-10-04T11:34:57.894Z,1.55
2022-10-04T11:40:23.771Z,1.60
2022-10-04T11:45:49.557Z,1.40
2022-10-04T11:51:05.940Z,1.40
2022-10-04T11:56:30.190Z,1.27
2022-10-04T12:01:32.458Z,1.30
2022-10-04T12:06:35.657Z,1.38
2022-10-04T12:12:23.584Z,1.58
2022-10-04T12:17:44.258Z,1.40
2022-10-04T12:23:22.597Z,1.40
2022-10-04T12:28:40.617Z,1.25
2022-10-04T12:33:48.380Z,1.48
2022-10-04T12:39:04.042Z,1.40
2022-10-04T12:44:24.118Z,1.08
2022-10-04T12:50:01.080Z,1.40
2022-10-04T12:55:14.641Z,1.17
2022-10-04T13:00:18.777Z,1.20
2022-10-04T13:05:24.856Z,1.40
2022-10-04T13:10:52.508Z,1.63
2022-10-04T13:21:47.174Z,1.52
2022-10-04T13:27:02.230Z,1.73
2022-10-04T13:32:16.314Z,1.92
2022-10-04T13:37:35.680Z,2.17
2022-10-04T13:42:58.857Z,2.10
2022-10-04T13:48:21.951Z,2.00
2022-10-04T13:54:02.428Z,2.00
2022-10-04T13:59:07.578Z,1.35
2022-10-04T14:04:30.365Z,1.60
2022-10-04T14:10:02.469Z,1.77
2022-10-04T14:15:35.066Z,1.98
2022-10-04T14:21:01.370Z,2.05
2022-10-04T14:26:28.524Z,1.83
2022-10-04T14:32:04.350Z,2.35
2022-10-04T14:37:44.240Z,1.88
2022-10-04T14:43:27.500Z,1.80
2022-10-04T14:48:58.492Z,2.05
2022-10-04T14:54:25.489Z,1.77
2022-10-04T15:04:59.470Z,1.70
2022-10-04T15:10:38.076Z,1.92
2022-10-04T15:16:15.669Z,1.75
2022-10-04T15:26:22.348Z,1.80
2022-10-04T15:31:41.021Z,1.60
2022-10-04T15:37:25.352Z,1.63
2022-10-04T15:42:39.554Z,1.60
2022-10-04T15:48:14.866Z,1.67
2022-10-04T15:53:31.734Z,1.50
2022-10-04T15:58:58.238Z,2.30
2022-10-04T16:04:54.570Z,1.87
2022-10-04T16:10:07.101Z,1.50
2022-10-04T16:15:38.334Z,1.83
2022-10-04T16:20:59.117Z,1.80
2022-10-04T16:26:27.104Z,2.13
2022-10-04T16:31:38.321Z,2.25
2022-10-04T16:36:45.639Z,2.53
2022-10-04T16:41:59.738Z,2.78
2022-10-04T16:47:16.658Z,2.95
2022-10-04T16:52:35.175Z,2.88
2022-10-04T16:57:38.009Z,3.03
2022-10-04T17:03:04.083Z,2.90
2022-10-04T17:08:25.530Z,2.97
2022-10-04T17:13:50.779Z,3.00
2022-10-04T17:19:03.539Z,3.20
2022-10-04T17:24:19.951Z,2.90
2022-10-04T17:29:48.446Z,3.10
2022-10-04T17:35:37.649Z,3.05
2022-10-04T17:40:54.172Z,2.30
2022-10-04T17:46:07.918Z,2.87
2022-10-04T17:51:51.918Z,2.90
2022-10-04T17:57:12.883Z,2.53
2022-10-04T18:02:48.831Z,2.40
2022-10-04T18:07:59.904Z,2.63
2022-10-04T18:13:05.525Z,2.65
2022-10-04T18:18:29.698Z,2.85
2022-10-04T18:23:35.616Z,2.50
2022-10-04T18:28:37.837Z,2.78
2022-10-04T18:33:49.991Z,2.90
2022-10-04T18:39:14.299Z,3.10
2022-10-04T18:44:19.550Z,3.42
2022-10-04T18:49:27.082Z,2.80
2022-10-04T18:54:50.468Z,3.17
2022-10-04T19:00:29.055Z,2.60
2022-10-04T19:05:51.511Z,2.70
2022-10-04T19:11:15.957Z,2.80
2022-10-04T19:16:47.084Z,2.92
2022-10-04T19:22:11.282Z,3.10
2022-10-04T19:27:36.793Z,3.30
2022-10-04T19:33:11.559Z,2.95
2022-10-04T19:38:13.137Z,2.83
2022-10-04T19:43:31.406Z,3.10
2022-10-04T19:48:40.914Z,3.40
2022-10-04T19:53:45.509Z,2.90
2022-10-04T19:59:04.626Z,3.00
2022-10-04T20:04:35.372Z,2.75
2022-10-04T20:09:37.088Z,2.80
2022-10-04T20:14:38.746Z,3.17
2022-10-04T20:19:41.165Z,2.75
2022-10-04T20:24:44.121Z,2.67
2022-10-04T20:29:51.667Z,3.33
2022-10-04T20:34:54.853Z,3.15
2022-10-04T20:39:57.056Z,3.30
2022-10-04T20:45:11.249Z,3.30
2022-10-04T20:50:33.339Z,3.47
2022-10-04T20:55:36.903Z,2.90
2022-10-04T21:00:57.863Z,3.05
2022-10-04T21:06:06.251Z,3.20
2022-10-04T21:11:21.577Z,3.00
2022-10-04T21:16:33.499Z,3.22
2022-10-04T21:22:02.850Z,2.72
2022-10-04T21:27:08.404Z,2.63
2022-10-04T21:32:10.052Z,3.03
2022-10-04T21:37:11.733Z,2.55
2022-10-04T21:42:13.437Z,2.70
2022-10-04T21:47:15.649Z,2.80
2022-10-04T21:52:18.158Z,2.80
2022-10-04T21:57:19.891Z,2.80
2022-10-04T22:02:21.618Z,2.80
2022-10-04T22:07:23.300Z,2.92
2022-10-04T22:12:24.982Z,2.95
2022-10-04T22:17:26.665Z,2.60
2022-10-04T22:22:32.667Z,2.80
2022-10-04T22:27:35.973Z,3.05
2022-10-04T22:32:38.072Z,3.15
2022-10-04T22:37:39.888Z,2.97
2022-10-04T22:42:42.122Z,2.67
2022-10-04T22:47:44.131Z,2.95
2022-10-04T22:52:45.741Z,3.20
2022-10-04T22:57:47.601Z,3.00
2022-10-04T23:02:49.498Z,3.40
2022-10-04T23:07:51.194Z,3.13
2022-10-04T23:12:53.032Z,3.20
2022-10-04T23:17:55.417Z,2.47
2022-10-04T23:22:59.826Z,3.10
2022-10-04T23:28:11.472Z,3.00
2022-10-04T23:33:21.906Z,3.10
2022-10-04T23:38:24.749Z,2.80
2022-10-04T23:43:28.945Z,3.33
2022-10-04T23:48:32.200Z,3.10
2022-10-04T23:53:34.002Z,3.05
2022-10-04T23:58:41.227Z,3.30
